createdAt,value
2019-04-27T00:02:28.049Z,152692.98
2019-04-27T00:05:10.523Z,152690.38
2019-04-27T00:07:40.694Z,152699.58
2019-04-27T00:10:11.278Z,152641.72
2019-04-27T00:12:39.918Z,152653.55
2019-04-27T00:15:10.126Z,152649.62
2019-04-27T00:17:49.440Z,152640.42
2019-04-27T00:20:23.994Z,152641.72
2019-04-27T00:22:54.149Z,152610.19
2019-04-27T00:25:23.080Z,152624.67
2019-04-27T00:27:53.419Z,152607.58
2019-04-27T00:30:23.469Z,152625.98
2019-04-27T00:32:53.603Z,152611.50
2019-04-27T00:35:23.908Z,152603.66
2019-04-27T00:37:56.816Z,152583.89
2019-04-27T00:40:33.594Z,152590.42
2019-04-27T00:43:03.013Z,152599.69
2019-04-27T00:45:33.428Z,152581.28
2019-04-27T00:48:03.532Z,152587.81
2019-04-27T00:50:33.803Z,152599.69
2019-04-27T00:53:03.431Z,152599.69
2019-04-27T00:55:33.592Z,152595.75
2019-04-27T00:58:04.246Z,152603.66
2019-04-27T01:00:36.747Z,152608.88
2019-04-27T01:03:06.973Z,152590.42
2019-04-27T01:05:35.459Z,152599.69
2019-04-27T01:08:03.990Z,152606.28
2019-04-27T01:10:33.456Z,152607.58
2019-04-27T01:13:03.323Z,152612.86
2019-04-27T01:15:34.003Z,152602.34
2019-04-27T01:18:12.354Z,152619.41
2019-04-27T01:20:33.212Z,152620.70
2019-04-27T01:23:01.713Z,152627.30
2019-04-27T01:25:31.818Z,152620.70
2019-04-27T01:28:09.720Z,152631.22
2019-04-27T01:30:49.043Z,152647.02
2019-04-27T01:33:17.644Z,152664.11
2019-04-27T01:35:46.124Z,152643.03
2019-04-27T01:38:14.707Z,152673.27
2019-04-27T01:40:43.202Z,152633.87
2019-04-27T01:43:11.708Z,152657.52
2019-04-27T01:45:40.197Z,152678.55
2019-04-27T01:48:22.517Z,152673.27
2019-04-27T01:50:39.253Z,152675.94
2019-04-27T01:53:09.103Z,152673.27
2019-04-27T01:55:38.602Z,152649.62
2019-04-27T01:58:10.642Z,152690.38
2019-04-27T02:00:49.417Z,152677.23
2019-04-27T02:03:22.125Z,152652.25
2019-04-27T02:05:52.244Z,152650.94
2019-04-27T02:08:20.767Z,152645.70
2019-04-27T02:10:49.643Z,152690.38
2019-04-27T02:13:19.124Z,152654.91
2019-04-27T02:15:48.687Z,152639.11
2019-04-27T02:18:17.309Z,152633.87
2019-04-27T02:20:45.851Z,152658.83
2019-04-27T02:23:14.346Z,152629.91
2019-04-27T02:25:42.828Z,152611.50
2019-04-27T02:28:12.956Z,152587.81
2019-04-27T02:31:01.909Z,152639.11
2019-04-27T02:33:34.180Z,152602.34
2019-04-27T02:36:02.649Z,152573.38
2019-04-27T02:38:31.158Z,152587.81
2019-04-27T02:41:01.175Z,152607.58
2019-04-27T02:43:33.875Z,152579.92
2019-04-27T02:46:02.358Z,152591.78
2019-04-27T02:48:31.045Z,152576.00
2019-04-27T02:51:07.130Z,152573.38
2019-04-27T02:56:27.034Z,152554.97
2019-04-27T02:58:55.597Z,152569.41
2019-04-27T03:01:25.847Z,152543.16
2019-04-27T03:03:54.370Z,152539.19
2019-04-27T03:06:23.337Z,152557.59
2019-04-27T03:08:54.043Z,152568.09
2019-04-27T03:11:23.504Z,152548.39
2019-04-27T03:13:53.795Z,152565.48
2019-04-27T03:16:40.055Z,152570.72
2019-04-27T03:19:26.179Z,152552.36
2019-04-27T03:21:56.310Z,152557.59
2019-04-27T03:24:42.567Z,152549.69
2019-04-27T03:27:12.757Z,152566.80
2019-04-27T03:29:41.490Z,152554.97
2019-04-27T03:32:12.500Z,152583.89
2019-04-27T03:34:41.777Z,152578.61
2019-04-27T03:37:10.746Z,152598.38
2019-04-27T03:39:39.826Z,152557.59
2019-04-27T03:42:10.385Z,152568.09
2019-04-27T03:44:39.858Z,152597.06
2019-04-27T03:47:12.317Z,152564.19
2019-04-27T03:49:41.516Z,152564.19
2019-04-27T03:52:26.900Z,152540.55
2019-04-27T03:55:03.151Z,152565.48
2019-04-27T03:57:33.351Z,152564.19
2019-04-27T04:00:03.479Z,152557.59
2019-04-27T04:02:31.980Z,152583.89
2019-04-27T04:05:00.546Z,152556.28
2019-04-27T04:07:30.098Z,152545.78
2019-04-27T04:10:00.204Z,152536.58
2019-04-27T04:12:30.751Z,152553.67
2019-04-27T04:14:59.989Z,152553.67
2019-04-27T04:17:30.813Z,152543.16
2019-04-27T04:20:01.616Z,152539.19
2019-04-27T04:22:30.560Z,152528.69
2019-04-27T04:24:59.859Z,152522.14
2019-04-27T04:27:29.890Z,152540.55
2019-04-27T04:29:59.390Z,152547.08
2019-04-27T04:32:29.724Z,152531.34
2019-04-27T04:35:21.161Z,152544.47
2019-04-27T04:37:52.755Z,152569.41
2019-04-27T04:40:23.127Z,152527.38
2019-04-27T04:42:53.577Z,152578.61
2019-04-27T04:45:39.620Z,152572.08
2019-04-27T04:48:10.100Z,152594.45
2019-04-27T04:50:39.608Z,152562.87
2019-04-27T04:53:12.499Z,152593.09
2019-04-27T04:55:39.229Z,152585.20
2019-04-27T04:58:09.391Z,152573.38
2019-04-27T05:00:40.114Z,152597.06
2019-04-27T05:03:09.454Z,152618.09
2019-04-27T05:05:41.048Z,152624.67
2019-04-27T05:08:09.117Z,152604.97
2019-04-27T05:10:39.524Z,152604.97
2019-04-27T05:13:09.370Z,152607.58
2019-04-27T05:15:39.497Z,152620.70
2019-04-27T05:18:09.135Z,152619.41
2019-04-27T05:20:42.395Z,152633.87
2019-04-27T05:23:10.887Z,152631.22
2019-04-27T05:25:39.365Z,152612.86
2019-04-27T05:28:09.694Z,152647.02
2019-04-27T05:30:39.107Z,152639.11
2019-04-27T05:33:08.946Z,152650.94
2019-04-27T05:35:40.623Z,152678.55
2019-04-27T05:38:12.784Z,152632.53
2019-04-27T05:40:39.899Z,152649.62
2019-04-27T05:43:09.193Z,152610.19
2019-04-27T05:46:12.321Z,152683.78
2019-04-27T05:48:39.900Z,152681.16
2019-04-27T05:51:09.211Z,152694.30
2019-04-27T05:53:39.426Z,152690.38
2019-04-27T05:56:09.389Z,152715.31
2019-04-27T05:58:39.248Z,152742.94
2019-04-27T06:01:10.969Z,152729.81
2019-04-27T06:03:39.721Z,152731.13
2019-04-27T06:06:09.707Z,152766.59
2019-04-27T06:08:39.308Z,152746.92
2019-04-27T06:11:09.452Z,152778.47
2019-04-27T06:13:39.241Z,152803.42
2019-04-27T06:16:09.508Z,152812.64
2019-04-27T06:18:39.166Z,152829.75
2019-04-27T06:21:09.605Z,152862.61
2019-04-27T06:23:39.088Z,152870.47
2019-04-27T06:26:09.153Z,152879.67
2019-04-27T06:28:39.820Z,152873.13
2019-04-27T06:31:08.876Z,152944.16
2019-04-27T06:33:39.160Z,152949.39
2019-04-27T06:36:09.863Z,152984.94
2019-04-27T06:38:39.332Z,152995.47
2019-04-27T06:41:10.066Z,153006.05
2019-04-27T06:43:38.202Z,153054.69
2019-04-27T06:46:06.699Z,153017.88
2019-04-27T06:48:35.186Z,153031.02
2019-04-27T06:51:05.638Z,153036.25
2019-04-27T06:53:33.969Z,153041.55
2019-04-27T06:56:02.480Z,153069.19
2019-04-27T06:58:30.953Z,153083.64
2019-04-27T07:00:59.654Z,153086.27
2019-04-27T07:03:28.928Z,153128.37
2019-04-27T07:05:58.835Z,153117.84
2019-04-27T07:08:30.570Z,153152.11
2019-04-27T07:10:58.855Z,153150.75
2019-04-27T07:13:29.142Z,153237.66
2019-04-27T07:15:59.561Z,153241.59
2019-04-27T07:18:28.685Z,153212.61
2019-04-27T07:20:58.639Z,153244.22
2019-04-27T07:23:29.278Z,153254.80
2019-04-27T07:25:57.569Z,153252.12
2019-04-27T07:28:26.083Z,153323.28
2019-04-27T07:30:54.564Z,153354.89
2019-04-27T07:33:23.063Z,153361.50
2019-04-27T07:35:51.608Z,153382.56
2019-04-27T07:38:20.122Z,153415.50
2019-04-27T07:40:48.962Z,153349.66
2019-04-27T07:43:25.066Z,153378.59
2019-04-27T07:45:53.561Z,153312.75
2019-04-27T07:48:22.041Z,153303.53
2019-04-27T07:50:50.547Z,153344.36
2019-04-27T07:53:19.424Z,153339.11
2019-04-27T07:55:49.510Z,153327.22
2019-04-27T07:58:20.608Z,153353.58
2019-04-27T08:00:49.206Z,153302.22
2019-04-27T08:03:19.557Z,153287.75
2019-04-27T08:05:49.128Z,153283.77
2019-04-27T08:08:18.982Z,153308.81
2019-04-27T08:10:50.053Z,153323.28
2019-04-27T08:13:19.462Z,153320.66
2019-04-27T08:15:49.640Z,153361.50
2019-04-27T08:18:18.940Z,153398.34
2019-04-27T08:20:49.110Z,153457.64
2019-04-27T08:23:19.438Z,153528.80
2019-04-27T08:25:48.989Z,153563.05
2019-04-27T08:28:22.019Z,153647.45
2019-04-27T08:30:58.569Z,153658.00
2019-04-27T08:33:28.984Z,153730.52
2019-04-27T08:35:59.075Z,153821.52
2019-04-27T08:38:28.908Z,153890.19
2019-04-27T08:40:59.239Z,154056.44
2019-04-27T08:43:28.976Z,153987.80
2019-04-27T08:45:58.740Z,153994.41
2019-04-27T08:48:34.732Z,154069.63
2019-04-27T08:50:59.365Z,153975.92
2019-04-27T08:53:29.729Z,153986.48
2019-04-27T08:55:59.185Z,154045.88
2019-04-27T08:58:28.597Z,154045.88
2019-04-27T09:00:58.912Z,154080.19
2019-04-27T09:03:29.380Z,154044.56
2019-04-27T09:05:58.999Z,154032.64
2019-04-27T09:08:32.520Z,154080.19
2019-04-27T09:11:18.671Z,154051.14
2019-04-27T09:13:49.756Z,154051.14
2019-04-27T09:16:25.430Z,154119.80
2019-04-27T09:18:55.571Z,154125.09
2019-04-27T09:21:24.053Z,154170.02
2019-04-27T09:23:52.545Z,154133.03
2019-04-27T09:26:21.020Z,154158.09
2019-04-27T09:28:49.522Z,154176.59
2019-04-27T09:31:19.597Z,154119.80
2019-04-27T09:33:48.240Z,154220.16
2019-04-27T09:36:16.745Z,154172.66
2019-04-27T09:38:46.520Z,154188.47
2019-04-27T09:41:16.964Z,154154.16
2019-04-27T09:43:46.596Z,154164.72
2019-04-27T09:46:15.812Z,154162.09
2019-04-27T09:48:44.415Z,154136.97
2019-04-27T09:51:12.927Z,154140.97
2019-04-27T09:53:41.410Z,154181.89
2019-04-27T09:56:09.929Z,154140.97
2019-04-27T09:58:38.412Z,154125.09
2019-04-27T10:01:06.952Z,154096.05
2019-04-27T10:03:36.083Z,154101.31
2019-04-27T10:06:05.881Z,154193.78
2019-04-27T10:08:36.542Z,154195.09
2019-04-27T10:11:05.985Z,154150.22
2019-04-27T10:13:36.236Z,154166.03
2019-04-27T10:16:05.448Z,154209.59
2019-04-27T10:18:33.935Z,154257.16
2019-04-27T10:21:02.462Z,154265.09
2019-04-27T10:23:30.914Z,154262.47
2019-04-27T10:25:59.404Z,154286.22
2019-04-27T10:28:27.906Z,154320.55
2019-04-27T10:30:56.413Z,154346.98
2019-04-27T10:33:26.073Z,154471.23
2019-04-27T10:35:56.278Z,154545.23
2019-04-27T10:38:25.900Z,154770.03
2019-04-27T10:40:54.659Z,154779.30
2019-04-27T10:43:23.132Z,154734.34
2019-04-27T10:45:51.707Z,154776.66
2019-04-27T10:48:20.199Z,154719.77
2019-04-27T10:50:48.688Z,154772.72
2019-04-27T10:53:17.197Z,154751.50
2019-04-27T10:55:46.413Z,154821.62
2019-04-27T10:58:15.014Z,154680.14
2019-04-27T11:00:45.976Z,154763.45
2019-04-27T11:03:16.663Z,154686.72
2019-04-27T11:06:07.195Z,154723.77
2019-04-27T11:08:35.701Z,154701.30
2019-04-27T11:11:04.187Z,154645.72
2019-04-27T11:13:32.684Z,154690.72
2019-04-27T11:16:01.166Z,154715.81
2019-04-27T11:18:29.733Z,154658.98
2019-04-27T11:20:58.210Z,154706.56
2019-04-27T11:23:26.734Z,154770.03
2019-04-27T11:25:55.216Z,154751.50
2019-04-27T11:28:23.726Z,154833.56
2019-04-27T11:30:52.216Z,154709.19
2019-04-27T11:33:20.728Z,154718.45
2019-04-27T11:35:50.846Z,154763.45
2019-04-27T11:38:19.368Z,154645.72
2019-04-27T11:40:47.862Z,154738.28
2019-04-27T11:43:16.362Z,154714.50
2019-04-27T11:45:45.724Z,154718.45
2019-04-27T11:48:16.031Z,154740.92
2019-04-27T11:50:45.878Z,154711.87
2019-04-27T11:53:22.726Z,154658.98
2019-04-27T11:55:45.227Z,154713.19
2019-04-27T11:58:13.733Z,154711.87
2019-04-27T12:00:42.215Z,154763.45
2019-04-27T12:03:10.742Z,154750.19
2019-04-27T12:05:39.213Z,154670.88
2019-04-27T12:08:07.779Z,154651.03
2019-04-27T12:10:36.451Z,154674.83
2019-04-27T12:13:05.436Z,154729.03
2019-04-27T12:15:36.231Z,154711.87
2019-04-27T12:18:09.023Z,154645.72
2019-04-27T12:20:35.917Z,154603.38
2019-04-27T12:23:06.599Z,154625.89
2019-04-27T12:25:37.062Z,154557.12
2019-04-27T12:28:10.751Z,154553.12
2019-04-27T12:30:41.068Z,154547.88
2019-04-27T12:33:09.530Z,154529.36
2019-04-27T12:35:38.003Z,154561.08
2019-04-27T12:38:07.343Z,154549.19
2019-04-27T12:40:36.648Z,154582.22
2019-04-27T12:43:05.413Z,154521.41
2019-04-27T12:45:33.897Z,154550.50
2019-04-27T12:48:02.715Z,154505.58
2019-04-27T12:50:31.277Z,154476.50
2019-04-27T12:53:01.388Z,154520.09
2019-04-27T12:55:31.592Z,154542.56
2019-04-27T12:58:06.319Z,154508.22
2019-04-27T13:00:36.770Z,154476.50
2019-04-27T13:03:06.122Z,154463.30
2019-04-27T13:05:35.890Z,154450.09
2019-04-27T13:08:04.625Z,154446.09
2019-04-27T13:10:33.766Z,154428.91
2019-04-27T13:13:02.298Z,154399.87
2019-04-27T13:15:31.806Z,154409.13
2019-04-27T13:18:00.336Z,154402.50
2019-04-27T13:20:28.885Z,154374.75
2019-04-27T13:22:57.354Z,154374.75
2019-04-27T13:25:25.854Z,154372.11
2019-04-27T13:27:54.312Z,154372.11
2019-04-27T13:30:23.072Z,154373.44
2019-04-27T13:32:51.554Z,154360.19
2019-04-27T13:35:20.040Z,154349.61
2019-04-27T13:37:48.543Z,154345.63
2019-04-27T13:40:18.279Z,154370.80
2019-04-27T13:42:53.594Z,154362.81
2019-04-27T13:45:26.643Z,154331.11
2019-04-27T13:48:18.114Z,154336.42
2019-04-27T13:50:51.129Z,154329.80
2019-04-27T13:53:19.597Z,154323.17
2019-04-27T13:55:48.521Z,154280.91
2019-04-27T13:58:17.130Z,154291.47
2019-04-27T14:00:45.589Z,154328.48
2019-04-27T14:03:14.347Z,154304.72
2019-04-27T14:05:44.352Z,154278.28
2019-04-27T14:08:12.834Z,154276.97
2019-04-27T14:10:41.358Z,154291.47
2019-04-27T14:13:11.082Z,154315.28
2019-04-27T14:15:39.722Z,154295.47
2019-04-27T14:18:08.513Z,154283.59
2019-04-27T14:20:38.844Z,154309.97
2019-04-27T14:23:18.791Z,154284.91
2019-04-27T14:25:47.433Z,154291.47
2019-04-27T14:28:15.933Z,154291.47
2019-04-27T14:30:44.397Z,154300.72
2019-04-27T14:33:12.956Z,154304.72
2019-04-27T14:35:41.441Z,154339.05
2019-04-27T14:38:09.943Z,154328.48
2019-04-27T14:40:39.238Z,154325.84
2019-04-27T14:43:08.510Z,154328.48
2019-04-27T14:45:38.269Z,154362.81
2019-04-27T14:48:08.268Z,154362.81
2019-04-27T14:50:38.632Z,154368.17
2019-04-27T14:53:08.853Z,154354.87
2019-04-27T14:55:38.814Z,154352.25
2019-04-27T14:58:08.712Z,154349.61
2019-04-27T15:00:38.417Z,154341.67
2019-04-27T15:03:07.149Z,154352.25
2019-04-27T15:05:35.702Z,154266.41
2019-04-27T15:08:06.476Z,154259.78
2019-04-27T15:10:36.115Z,154237.34
2019-04-27T15:13:06.496Z,154220.16
2019-04-27T15:15:35.671Z,154188.47
2019-04-27T15:18:05.564Z,154164.72
2019-04-27T15:20:38.999Z,154159.45
2019-04-27T15:23:06.079Z,154133.03
2019-04-27T15:25:42.330Z,154168.66
2019-04-27T15:28:07.470Z,154170.02
2019-04-27T15:30:41.654Z,154143.59
2019-04-27T15:33:26.867Z,154117.16
2019-04-27T15:36:14.507Z,154146.22
2019-04-27T15:38:49.256Z,154135.66
2019-04-27T15:41:16.927Z,154143.59
2019-04-27T15:43:48.551Z,154156.78
2019-04-27T15:46:18.431Z,154140.97
2019-04-27T15:48:48.748Z,154144.91
2019-04-27T15:51:20.997Z,154148.89
2019-04-27T15:53:52.738Z,154146.22
2019-04-27T15:56:18.189Z,154123.78
2019-04-27T15:58:48.333Z,154110.55
2019-04-27T16:01:18.057Z,154070.94
2019-04-27T16:03:48.179Z,154086.80
2019-04-27T16:06:18.718Z,154069.63
2019-04-27T16:08:49.163Z,154063.00
2019-04-27T16:11:19.801Z,154047.19
2019-04-27T16:13:48.778Z,154037.95
2019-04-27T16:16:18.567Z,154006.28
2019-04-27T16:18:49.015Z,154008.91
2019-04-27T16:21:18.154Z,153990.42
2019-04-27T16:23:48.063Z,153975.92
2019-04-27T16:26:18.154Z,153953.50
2019-04-27T16:28:52.876Z,153961.44
2019-04-27T16:31:18.662Z,153969.31
2019-04-27T16:33:49.379Z,153969.31
2019-04-27T16:36:19.609Z,153948.19
2019-04-27T16:38:49.538Z,153953.50
2019-04-27T16:41:18.539Z,153964.06
2019-04-27T16:43:48.845Z,153975.92
2019-04-27T16:46:21.064Z,153974.61
2019-04-27T16:48:47.587Z,153964.06
2019-04-27T16:51:16.088Z,153953.50
2019-04-27T16:53:44.556Z,153956.13
2019-04-27T16:56:15.275Z,153973.30
2019-04-27T16:58:43.436Z,153966.69
2019-04-27T17:01:28.643Z,153975.92
2019-04-27T17:03:56.460Z,153994.41
2019-04-27T17:06:25.594Z,154000.97
2019-04-27T17:08:57.262Z,153979.86
2019-04-27T17:11:25.476Z,153977.23
2019-04-27T17:13:59.004Z,153977.23
2019-04-27T17:16:35.535Z,153969.31
2019-04-27T17:19:20.939Z,153977.23
2019-04-27T17:21:49.437Z,153974.61
2019-04-27T17:24:41.607Z,153979.86
2019-04-27T17:27:05.327Z,153954.81
2019-04-27T17:29:35.627Z,153945.58
2019-04-27T17:32:04.507Z,153938.95
2019-04-27T17:34:33.004Z,153929.77
2019-04-27T17:37:01.474Z,153940.31
2019-04-27T17:39:29.961Z,153932.39
2019-04-27T17:41:58.784Z,153924.47
2019-04-27T17:44:28.826Z,153937.64
2019-04-27T17:46:57.500Z,153925.78
2019-04-27T17:49:27.963Z,153921.84
2019-04-27T17:51:58.372Z,153916.53
2019-04-27T17:54:26.466Z,153898.06
2019-04-27T17:56:55.028Z,153911.28
2019-04-27T17:59:23.511Z,153924.47
2019-04-27T18:01:53.923Z,153927.09
2019-04-27T18:04:22.214Z,153911.28
2019-04-27T18:06:50.694Z,153905.98
2019-04-27T18:09:19.422Z,153911.28
2019-04-27T18:11:49.991Z,153887.50
2019-04-27T18:14:19.279Z,153888.86
2019-04-27T18:16:48.304Z,153891.50
2019-04-27T18:19:24.554Z,153899.42
2019-04-27T18:22:00.978Z,153884.88
2019-04-27T18:24:34.658Z,153879.63
2019-04-27T18:27:13.711Z,153863.77
2019-04-27T18:29:42.564Z,153869.08
2019-04-27T18:32:11.102Z,153855.80
2019-04-27T18:34:39.596Z,153829.44
2019-04-27T18:37:08.166Z,153810.97
2019-04-27T18:39:38.495Z,153829.44
2019-04-27T18:42:08.728Z,153810.97
2019-04-27T18:44:38.187Z,153808.34
2019-04-27T18:47:08.440Z,153807.03
2019-04-27T18:49:38.777Z,153803.03
2019-04-27T18:52:09.000Z,153799.09
2019-04-27T18:54:41.866Z,153787.23
2019-04-27T18:57:10.910Z,153774.06
2019-04-27T18:59:38.173Z,153743.73
2019-04-27T19:02:08.460Z,153763.52
2019-04-27T19:04:37.192Z,153755.59
2019-04-27T19:07:05.664Z,153730.52
2019-04-27T19:09:34.242Z,153734.50
2019-04-27T19:12:02.735Z,153722.64
2019-04-27T19:14:31.213Z,153716.03
2019-04-27T19:16:59.675Z,153713.41
2019-04-27T19:19:29.452Z,153668.53
2019-04-27T19:21:58.898Z,153663.30
2019-04-27T19:24:28.231Z,153665.92
2019-04-27T19:26:58.801Z,153652.75
2019-04-27T19:29:29.302Z,153619.80
2019-04-27T19:31:59.512Z,153561.73
2019-04-27T19:34:28.633Z,153515.64
2019-04-27T19:36:59.051Z,153536.72
2019-04-27T19:39:28.561Z,153505.09
2019-04-27T19:42:01.339Z,153512.97
2019-04-27T19:44:29.142Z,153458.95
2019-04-27T19:46:59.946Z,153452.41
2019-04-27T19:49:31.233Z,153461.58
2019-04-27T19:51:58.855Z,153404.95
2019-04-27T19:54:29.943Z,153441.86
2019-04-27T19:56:59.555Z,153386.50
2019-04-27T19:59:29.916Z,153399.66
2019-04-27T20:02:00.163Z,153386.50
2019-04-27T20:04:32.743Z,153397.03
2019-04-27T20:07:01.206Z,153318.05
2019-04-27T20:09:31.314Z,153362.81
2019-04-27T20:12:00.791Z,153386.50
2019-04-27T20:14:31.403Z,153332.50
2019-04-27T20:16:59.893Z,153348.34
2019-04-27T20:19:28.359Z,153267.94
2019-04-27T20:21:56.848Z,153257.41
2019-04-27T20:24:25.322Z,153294.31
2019-04-27T20:26:53.800Z,153285.08
2019-04-27T20:29:22.264Z,153302.22
2019-04-27T20:31:51.272Z,153293.00
2019-04-27T20:34:21.168Z,153281.16
2019-04-27T20:36:51.067Z,153289.06
2019-04-27T20:39:20.446Z,153249.50
2019-04-27T20:41:51.144Z,153235.03
2019-04-27T20:44:21.032Z,153241.59
2019-04-27T20:46:51.382Z,153242.91
2019-04-27T20:49:21.079Z,153228.44
2019-04-27T20:51:53.232Z,153186.31
2019-04-27T20:54:22.876Z,153165.25
2019-04-27T20:56:53.636Z,153181.03
2019-04-27T20:59:22.066Z,153188.94
2019-04-27T21:01:50.761Z,153181.03
2019-04-27T21:04:21.051Z,153182.37
2019-04-27T21:06:53.677Z,153146.81
2019-04-27T21:09:22.140Z,153150.75
2019-04-27T21:11:50.705Z,153144.19
2019-04-27T21:14:19.199Z,153148.13
2019-04-27T21:16:48.065Z,153177.09
2019-04-27T21:19:16.535Z,153165.25
2019-04-27T21:21:45.042Z,153106.02
2019-04-27T21:24:13.508Z,153092.88
2019-04-27T21:26:42.074Z,153086.27
2019-04-27T21:29:11.677Z,153046.78
2019-04-27T21:31:41.793Z,153028.41
2019-04-27T21:34:10.519Z,153062.59
2019-04-27T21:36:42.266Z,153062.59
2019-04-27T21:39:09.452Z,153078.36
2019-04-27T21:41:37.961Z,153052.06
2019-04-27T21:44:06.503Z,153049.45
2019-04-27T21:46:35.026Z,153065.22
2019-04-27T21:49:03.455Z,153071.81
2019-04-27T21:51:33.577Z,153033.64
2019-04-27T21:54:12.990Z,153071.81
2019-04-27T21:56:41.728Z,153041.55
2019-04-27T21:59:11.106Z,153044.16
2019-04-27T22:01:41.576Z,153013.91
2019-04-27T22:04:11.431Z,153017.88
2019-04-27T22:06:40.917Z,153000.75
2019-04-27T22:09:12.924Z,152990.23
2019-04-27T22:11:41.409Z,152991.53
2019-04-27T22:14:11.705Z,152974.42
2019-04-27T22:16:41.665Z,153009.97
2019-04-27T22:19:12.051Z,152986.31
2019-04-27T22:21:41.975Z,152928.36
2019-04-27T22:24:12.298Z,152959.97
2019-04-27T22:26:41.491Z,152900.72
2019-04-27T22:29:12.056Z,152904.69
2019-04-27T22:31:41.506Z,152920.45
2019-04-27T22:34:10.837Z,152920.45
2019-04-27T22:36:39.405Z,152899.41
2019-04-27T22:39:11.627Z,152894.17
2019-04-27T22:41:44.724Z,152908.63
2019-04-27T22:44:14.865Z,152911.23
2019-04-27T22:46:45.043Z,152894.17
2019-04-27T22:49:13.540Z,152886.27
2019-04-27T22:51:43.140Z,152862.61
2019-04-27T22:54:11.792Z,152840.27
2019-04-27T22:56:42.236Z,152865.23
2019-04-27T22:59:27.647Z,152858.62
2019-04-27T23:02:06.741Z,152844.19
2019-04-27T23:04:36.892Z,152850.78
2019-04-27T23:07:05.510Z,152802.12
2019-04-27T23:09:34.002Z,152807.34
2019-04-27T23:12:02.474Z,152842.88
2019-04-27T23:14:31.364Z,152867.84
2019-04-27T23:17:03.148Z,152850.78
2019-04-27T23:19:31.819Z,152825.77
2019-04-27T23:22:00.802Z,152861.30
2019-04-27T23:24:31.068Z,152838.91
2019-04-27T23:26:59.610Z,152857.33
2019-04-27T23:29:28.101Z,152840.27
2019-04-27T23:32:11.705Z,152804.73
2019-04-27T23:34:41.518Z,152815.25
2019-04-27T23:37:10.161Z,152825.77
2019-04-27T23:39:38.645Z,152845.50
2019-04-27T23:42:07.167Z,152838.91
2019-04-27T23:44:35.653Z,152857.33
2019-04-27T23:47:04.120Z,152854.70
2019-04-27T23:49:32.601Z,152802.12
2019-04-27T23:52:02.718Z,152850.78
2019-04-27T23:54:31.197Z,152827.08
2019-04-27T23:56:59.667Z,152803.42
2019-04-27T23:59:28.169Z,152806.05
